sensor_id;sensor_type;location;lat;lon;timestamp;P1;durP1;ratioP1;P2;durP2;ratioP2
45836;SDS011;31548;51.420;-0.040;2023-05-10T00:00:10;5.30;;;0.70;;
45836;SDS011;31548;51.420;-0.040;2023-05-10T00:02:40;3.42;;;0.70;;
45836;SDS011;31548;51.420;-0.040;2023-05-10T00:05:08;1.10;;;0.63;;
45836;SDS011;31548;51.420;-0.040;2023-05-10T00:07:35;0.65;;;0.50;;
45836;SDS011;31548;51.420;-0.040;2023-05-10T00:10:03;2.35;;;1.25;;
45836;SDS011;31548;51.420;-0.040;2023-05-10T00:12:30;2.15;;;0.60;;
45836;SDS011;31548;51.420;-0.040;2023-05-10T00:14:57;3.08;;;0.63;;
45836;SDS011;31548;51.420;-0.040;2023-05-10T00:17:25;7.78;;;1.25;;
45836;SDS011;31548;51.420;-0.040;2023-05-10T00:19:52;1.48;;;0.80;;
45836;SDS011;31548;51.420;-0.040;2023-05-10T00:22:19;3.30;;;0.75;;
45836;SDS011;31548;51.420;-0.040;2023-05-10T00:24:47;2.42;;;0.95;;
45836;SDS011;31548;51.420;-0.040;2023-05-10T00:27:14;5.60;;;1.17;;
45836;SDS011;31548;51.420;-0.040;2023-05-10T00:29:41;6.93;;;1.35;;
45836;SDS011;31548;51.420;-0.040;2023-05-10T00:32:09;1.83;;;0.93;;
45836;SDS011;31548;51.420;-0.040;2023-05-10T00:34:36;4.57;;;0.80;;
45836;SDS011;31548;51.420;-0.040;2023-05-10T00:37:04;3.13;;;1.10;;
45836;SDS011;31548;51.420;-0.040;2023-05-10T00:39:32;5.43;;;1.42;;
45836;SDS011;31548;51.420;-0.040;2023-05-10T00:41:59;1.92;;;0.95;;
45836;SDS011;31548;51.420;-0.040;2023-05-10T00:44:27;4.03;;;1.00;;
45836;SDS011;31548;51.420;-0.040;2023-05-10T00:46:54;4.47;;;1.15;;
45836;SDS011;31548;51.420;-0.040;2023-05-10T00:49:21;2.95;;;1.00;;
45836;SDS011;31548;51.420;-0.040;2023-05-10T00:51:48;2.67;;;1.13;;
45836;SDS011;31548;51.420;-0.040;2023-05-10T00:54:16;7.13;;;1.35;;
45836;SDS011;31548;51.420;-0.040;2023-05-10T00:56:44;3.22;;;1.17;;
45836;SDS011;31548;51.420;-0.040;2023-05-10T00:59:15;3.42;;;0.90;;
45836;SDS011;31548;51.420;-0.040;2023-05-10T01:01:44;3.35;;;1.15;;
45836;SDS011;31548;51.420;-0.040;2023-05-10T01:04:12;6.60;;;1.02;;
45836;SDS011;31548;51.420;-0.040;2023-05-10T01:06:41;5.20;;;1.70;;
45836;SDS011;31548;51.420;-0.040;2023-05-10T01:09:09;2.95;;;1.20;;
45836;SDS011;31548;51.420;-0.040;2023-05-10T01:11:38;3.38;;;1.10;;
45836;SDS011;31548;51.420;-0.040;2023-05-10T01:14:06;10.00;;;1.80;;
45836;SDS011;31548;51.420;-0.040;2023-05-10T01:16:36;1.90;;;1.20;;
45836;SDS011;31548;51.420;-0.040;2023-05-10T01:19:06;4.07;;;1.13;;
45836;SDS011;31548;51.420;-0.040;2023-05-10T01:41:54;7.03;;;1.38;;
45836;SDS011;31548;51.420;-0.040;2023-05-10T01:44:43;2.67;;;1.10;;
45836;SDS011;31548;51.420;-0.040;2023-05-10T01:47:34;7.47;;;1.30;;
45836;SDS011;31548;51.420;-0.040;2023-05-10T01:50:18;5.35;;;1.55;;
45836;SDS011;31548;51.420;-0.040;2023-05-10T01:52:56;2.85;;;1.52;;
45836;SDS011;31548;51.420;-0.040;2023-05-10T01:55:29;6.55;;;1.85;;
45836;SDS011;31548;51.420;-0.040;2023-05-10T01:58:05;4.10;;;1.60;;
45836;SDS011;31548;51.420;-0.040;2023-05-10T02:00:35;3.78;;;1.05;;
45836;SDS011;31548;51.420;-0.040;2023-05-10T02:03:04;4.82;;;1.90;;
45836;SDS011;31548;51.420;-0.040;2023-05-10T02:05:36;7.22;;;1.90;;
45836;SDS011;31548;51.420;-0.040;2023-05-10T02:08:05;6.97;;;1.80;;
45836;SDS011;31548;51.420;-0.040;2023-05-10T02:10:36;5.53;;;1.40;;
45836;SDS011;31548;51.420;-0.040;2023-05-10T02:13:07;4.70;;;1.38;;
45836;SDS011;31548;51.420;-0.040;2023-05-10T02:15:35;3.38;;;1.40;;
45836;SDS011;31548;51.420;-0.040;2023-05-10T02:18:03;3.83;;;0.95;;
45836;SDS011;31548;51.420;-0.040;2023-05-10T02:20:32;4.97;;;1.20;;
45836;SDS011;31548;51.420;-0.040;2023-05-10T02:23:01;7.13;;;1.65;;
45836;SDS011;31548;51.420;-0.040;2023-05-10T02:25:29;3.83;;;1.70;;
45836;SDS011;31548;51.420;-0.040;2023-05-10T02:27:59;2.47;;;1.02;;
45836;SDS011;31548;51.420;-0.040;2023-05-10T02:30:28;4.28;;;1.73;;
45836;SDS011;31548;51.420;-0.040;2023-05-10T02:32:59;3.20;;;1.48;;
45836;SDS011;31548;51.420;-0.040;2023-05-10T02:35:27;5.38;;;1.45;;
45836;SDS011;31548;51.420;-0.040;2023-05-10T02:37:55;4.45;;;1.35;;
45836;SDS011;31548;51.420;-0.040;2023-05-10T02:40:25;5.78;;;1.65;;
45836;SDS011;31548;51.420;-0.040;2023-05-10T02:42:55;3.50;;;1.58;;
45836;SDS011;31548;51.420;-0.040;2023-05-10T02:45:26;6.60;;;1.60;;
45836;SDS011;31548;51.420;-0.040;2023-05-10T02:47:55;3.88;;;1.42;;
45836;SDS011;31548;51.420;-0.040;2023-05-10T02:50:24;6.47;;;1.63;;
45836;SDS011;31548;51.420;-0.040;2023-05-10T02:52:56;5.93;;;1.48;;
45836;SDS011;31548;51.420;-0.040;2023-05-10T02:55:31;2.53;;;1.30;;
45836;SDS011;31548;51.420;-0.040;2023-05-10T02:58:02;5.60;;;0.80;;
45836;SDS011;31548;51.420;-0.040;2023-05-10T03:00:30;6.60;;;1.73;;
45836;SDS011;31548;51.420;-0.040;2023-05-10T03:02:58;5.45;;;1.40;;
45836;SDS011;31548;51.420;-0.040;2023-05-10T03:05:26;2.95;;;1.13;;
45836;SDS011;31548;51.420;-0.040;2023-05-10T03:07:55;11.60;;;2.28;;
45836;SDS011;31548;51.420;-0.040;2023-05-10T03:10:26;3.15;;;1.45;;
45836;SDS011;31548;51.420;-0.040;2023-05-10T03:16:08;4.47;;;1.42;;
45836;SDS011;31548;51.420;-0.040;2023-05-10T03:18:42;7.25;;;1.10;;
45836;SDS011;31548;51.420;-0.040;2023-05-10T03:21:14;5.32;;;1.80;;
45836;SDS011;31548;51.420;-0.040;2023-05-10T03:23:50;4.70;;;1.90;;
45836;SDS011;31548;51.420;-0.040;2023-05-10T03:26:24;4.35;;;1.85;;
45836;SDS011;31548;51.420;-0.040;2023-05-10T03:29:02;5.47;;;1.52;;
45836;SDS011;31548;51.420;-0.040;2023-05-10T03:31:32;6.50;;;1.65;;
45836;SDS011;31548;51.420;-0.040;2023-05-10T03:33:59;6.43;;;2.40;;
45836;SDS011;31548;51.420;-0.040;2023-05-10T03:36:27;5.95;;;1.85;;
45836;SDS011;31548;51.420;-0.040;2023-05-10T03:38:55;5.28;;;2.08;;
45836;SDS011;31548;51.420;-0.040;2023-05-10T03:41:23;6.78;;;2.50;;
45836;SDS011;31548;51.420;-0.040;2023-05-10T03:43:53;10.15;;;2.97;;
45836;SDS011;31548;51.420;-0.040;2023-05-10T03:46:21;5.15;;;2.25;;
45836;SDS011;31548;51.420;-0.040;2023-05-10T03:48:48;3.83;;;1.75;;
45836;SDS011;31548;51.420;-0.040;2023-05-10T03:51:16;5.00;;;1.77;;
45836;SDS011;31548;51.420;-0.040;2023-05-10T03:53:43;6.07;;;2.50;;
45836;SDS011;31548;51.420;-0.040;2023-05-10T03:56:10;8.38;;;2.67;;
45836;SDS011;31548;51.420;-0.040;2023-05-10T03:58:37;6.97;;;2.30;;
45836;SDS011;31548;51.420;-0.040;2023-05-10T04:01:05;4.55;;;2.10;;
45836;SDS011;31548;51.420;-0.040;2023-05-10T04:03:32;7.28;;;2.30;;
45836;SDS011;31548;51.420;-0.040;2023-05-10T04:06:00;15.65;;;3.08;;
45836;SDS011;31548;51.420;-0.040;2023-05-10T04:08:28;5.43;;;2.58;;
45836;SDS011;31548;51.420;-0.040;2023-05-10T04:11:11;6.85;;;2.75;;
45836;SDS011;31548;51.420;-0.040;2023-05-10T04:13:39;7.82;;;3.15;;
45836;SDS011;31548;51.420;-0.040;2023-05-10T04:16:06;5.63;;;2.13;;
45836;SDS011;31548;51.420;-0.040;2023-05-10T04:18:34;12.05;;;3.03;;
45836;SDS011;31548;51.420;-0.040;2023-05-10T04:21:01;8.88;;;3.22;;
45836;SDS011;31548;51.420;-0.040;2023-05-10T04:23:29;8.05;;;3.33;;
45836;SDS011;31548;51.420;-0.040;2023-05-10T04:26:00;9.13;;;3.63;;
45836;SDS011;31548;51.420;-0.040;2023-05-10T04:28:27;10.45;;;3.70;;
45836;SDS011;31548;51.420;-0.040;2023-05-10T04:31:04;11.05;;;4.13;;
45836;SDS011;31548;51.420;-0.040;2023-05-10T04:33:33;6.82;;;3.42;;
45836;SDS011;31548;51.420;-0.040;2023-05-10T04:36:02;9.68;;;3.92;;
45836;SDS011;31548;51.420;-0.040;2023-05-10T04:38:30;9.80;;;4.00;;
45836;SDS011;31548;51.420;-0.040;2023-05-10T04:41:04;5.82;;;2.53;;
45836;SDS011;31548;51.420;-0.040;2023-05-10T04:43:35;9.30;;;3.88;;
45836;SDS011;31548;51.420;-0.040;2023-05-10T04:46:03;9.65;;;3.97;;
45836;SDS011;31548;51.420;-0.040;2023-05-10T04:48:31;14.95;;;5.53;;
45836;SDS011;31548;51.420;-0.040;2023-05-10T04:50:58;7.88;;;3.50;;
45836;SDS011;31548;51.420;-0.040;2023-05-10T04:53:25;11.95;;;4.68;;
45836;SDS011;31548;51.420;-0.040;2023-05-10T04:55:52;11.00;;;5.22;;
45836;SDS011;31548;51.420;-0.040;2023-05-10T04:58:20;12.32;;;4.80;;
45836;SDS011;31548;51.420;-0.040;2023-05-10T05:00:47;15.70;;;6.05;;
45836;SDS011;31548;51.420;-0.040;2023-05-10T05:03:14;15.48;;;5.38;;
45836;SDS011;31548;51.420;-0.040;2023-05-10T05:05:43;10.90;;;4.65;;
45836;SDS011;31548;51.420;-0.040;2023-05-10T05:08:11;11.45;;;5.40;;
45836;SDS011;31548;51.420;-0.040;2023-05-10T05:10:39;17.45;;;6.53;;
45836;SDS011;31548;51.420;-0.040;2023-05-10T05:13:06;10.00;;;4.78;;
45836;SDS011;31548;51.420;-0.040;2023-05-10T05:15:34;9.63;;;4.45;;
45836;SDS011;31548;51.420;-0.040;2023-05-10T05:18:01;12.60;;;4.70;;
45836;SDS011;31548;51.420;-0.040;2023-05-10T05:20:31;14.43;;;5.55;;
45836;SDS011;31548;51.420;-0.040;2023-05-10T05:22:59;10.48;;;5.20;;
45836;SDS011;31548;51.420;-0.040;2023-05-10T05:25:27;12.95;;;4.55;;
45836;SDS011;31548;51.420;-0.040;2023-05-10T05:27:55;12.93;;;6.03;;
45836;SDS011;31548;51.420;-0.040;2023-05-10T05:30:22;12.68;;;6.00;;
45836;SDS011;31548;51.420;-0.040;2023-05-10T05:32:49;12.90;;;5.05;;
45836;SDS011;31548;51.420;-0.040;2023-05-10T05:35:16;15.13;;;5.10;;
45836;SDS011;31548;51.420;-0.040;2023-05-10T05:37:44;14.90;;;5.45;;
45836;SDS011;31548;51.420;-0.040;2023-05-10T05:40:14;13.02;;;5.10;;
45836;SDS011;31548;51.420;-0.040;2023-05-10T05:42:41;14.98;;;6.53;;
45836;SDS011;31548;51.420;-0.040;2023-05-10T05:45:09;11.93;;;5.20;;
45836;SDS011;31548;51.420;-0.040;2023-05-10T05:47:40;12.73;;;5.53;;
45836;SDS011;31548;51.420;-0.040;2023-05-10T05:50:07;11.63;;;5.10;;
45836;SDS011;31548;51.420;-0.040;2023-05-10T05:52:35;14.57;;;5.30;;
45836;SDS011;31548;51.420;-0.040;2023-05-10T05:55:02;11.88;;;5.50;;
45836;SDS011;31548;51.420;-0.040;2023-05-10T05:57:30;15.73;;;5.28;;
45836;SDS011;31548;51.420;-0.040;2023-05-10T05:59:57;14.40;;;4.32;;
45836;SDS011;31548;51.420;-0.040;2023-05-10T06:02:25;15.73;;;5.65;;
45836;SDS011;31548;51.420;-0.040;2023-05-10T06:04:52;15.18;;;4.97;;
45836;SDS011;31548;51.420;-0.040;2023-05-10T06:07:19;9.50;;;4.30;;
45836;SDS011;31548;51.420;-0.040;2023-05-10T06:09:47;13.15;;;4.22;;
45836;SDS011;31548;51.420;-0.040;2023-05-10T06:12:14;12.60;;;4.82;;
45836;SDS011;31548;51.420;-0.040;2023-05-10T06:14:41;12.25;;;4.45;;
45836;SDS011;31548;51.420;-0.040;2023-05-10T06:17:08;11.10;;;5.45;;
45836;SDS011;31548;51.420;-0.040;2023-05-10T06:19:35;12.50;;;5.50;;
45836;SDS011;31548;51.420;-0.040;2023-05-10T06:22:03;12.52;;;6.40;;
45836;SDS011;31548;51.420;-0.040;2023-05-10T06:24:30;12.48;;;4.40;;
45836;SDS011;31548;51.420;-0.040;2023-05-10T06:26:57;20.40;;;6.22;;
45836;SDS011;31548;51.420;-0.040;2023-05-10T06:29:26;18.35;;;6.13;;
45836;SDS011;31548;51.420;-0.040;2023-05-10T06:31:53;12.05;;;5.72;;
45836;SDS011;31548;51.420;-0.040;2023-05-10T06:34:21;16.42;;;6.50;;
45836;SDS011;31548;51.420;-0.040;2023-05-10T06:36:48;13.68;;;5.75;;
45836;SDS011;31548;51.420;-0.040;2023-05-10T06:39:15;17.42;;;7.70;;
45836;SDS011;31548;51.420;-0.040;2023-05-10T06:41:43;15.13;;;5.22;;
45836;SDS011;31548;51.420;-0.040;2023-05-10T06:44:13;18.63;;;7.75;;
45836;SDS011;31548;51.420;-0.040;2023-05-10T06:46:41;12.70;;;5.82;;
45836;SDS011;31548;51.420;-0.040;2023-05-10T06:49:09;11.38;;;4.75;;
45836;SDS011;31548;51.420;-0.040;2023-05-10T06:51:36;16.02;;;6.35;;
45836;SDS011;31548;51.420;-0.040;2023-05-10T06:54:03;18.10;;;5.80;;
45836;SDS011;31548;51.420;-0.040;2023-05-10T06:56:31;11.60;;;4.43;;
45836;SDS011;31548;51.420;-0.040;2023-05-10T06:58:58;9.45;;;4.22;;
45836;SDS011;31548;51.420;-0.040;2023-05-10T07:01:25;12.38;;;3.88;;
45836;SDS011;31548;51.420;-0.040;2023-05-10T07:03:53;14.13;;;3.22;;
45836;SDS011;31548;51.420;-0.040;2023-05-10T07:06:20;7.25;;;2.65;;
45836;SDS011;31548;51.420;-0.040;2023-05-10T07:08:59;14.82;;;3.03;;
45836;SDS011;31548;51.420;-0.040;2023-05-10T07:11:27;17.10;;;3.97;;
45836;SDS011;31548;51.420;-0.040;2023-05-10T07:13:54;7.80;;;2.33;;
45836;SDS011;31548;51.420;-0.040;2023-05-10T07:16:21;8.02;;;2.83;;
45836;SDS011;31548;51.420;-0.040;2023-05-10T07:18:49;16.00;;;3.88;;
45836;SDS011;31548;51.420;-0.040;2023-05-10T07:21:17;8.13;;;3.22;;
45836;SDS011;31548;51.420;-0.040;2023-05-10T07:23:44;10.07;;;2.67;;
45836;SDS011;31548;51.420;-0.040;2023-05-10T07:26:11;7.18;;;2.35;;
45836;SDS011;31548;51.420;-0.040;2023-05-10T07:28:39;8.27;;;2.78;;
45836;SDS011;31548;51.420;-0.040;2023-05-10T07:31:06;10.05;;;2.90;;
45836;SDS011;31548;51.420;-0.040;2023-05-10T07:33:33;12.90;;;2.13;;
45836;SDS011;31548;51.420;-0.040;2023-05-10T07:36:01;13.10;;;2.00;;
45836;SDS011;31548;51.420;-0.040;2023-05-10T07:38:28;5.20;;;1.90;;
45836;SDS011;31548;51.420;-0.040;2023-05-10T07:40:55;13.77;;;2.35;;
45836;SDS011;31548;51.420;-0.040;2023-05-10T07:43:22;8.55;;;2.08;;
45836;SDS011;31548;51.420;-0.040;2023-05-10T07:45:49;10.02;;;1.92;;
45836;SDS011;31548;51.420;-0.040;2023-05-10T07:48:20;7.22;;;2.05;;
45836;SDS011;31548;51.420;-0.040;2023-05-10T07:50:48;7.97;;;2.33;;
45836;SDS011;31548;51.420;-0.040;2023-05-10T07:53:15;15.63;;;2.00;;
45836;SDS011;31548;51.420;-0.040;2023-05-10T07:55:43;11.30;;;2.13;;
45836;SDS011;31548;51.420;-0.040;2023-05-10T07:58:10;9.00;;;1.98;;
45836;SDS011;31548;51.420;-0.040;2023-05-10T08:00:37;11.50;;;2.60;;
45836;SDS011;31548;51.420;-0.040;2023-05-10T08:03:06;13.30;;;1.67;;
45836;SDS011;31548;51.420;-0.040;2023-05-10T08:05:33;7.47;;;2.22;;
45836;SDS011;31548;51.420;-0.040;2023-05-10T08:08:01;15.27;;;2.28;;
45836;SDS011;31548;51.420;-0.040;2023-05-10T08:10:28;10.27;;;2.45;;
45836;SDS011;31548;51.420;-0.040;2023-05-10T08:12:56;8.15;;;1.85;;
45836;SDS011;31548;51.420;-0.040;2023-05-10T08:15:25;12.25;;;1.77;;
45836;SDS011;31548;51.420;-0.040;2023-05-10T08:17:52;13.55;;;2.33;;
45836;SDS011;31548;51.420;-0.040;2023-05-10T08:20:19;11.27;;;1.92;;
45836;SDS011;31548;51.420;-0.040;2023-05-10T08:22:47;11.55;;;2.10;;
45836;SDS011;31548;51.420;-0.040;2023-05-10T08:25:17;9.32;;;1.52;;
45836;SDS011;31548;51.420;-0.040;2023-05-10T08:27:45;10.10;;;2.30;;
45836;SDS011;31548;51.420;-0.040;2023-05-10T08:30:12;11.50;;;2.55;;
45836;SDS011;31548;51.420;-0.040;2023-05-10T08:32:39;8.80;;;2.28;;
45836;SDS011;31548;51.420;-0.040;2023-05-10T08:35:07;11.90;;;1.73;;
45836;SDS011;31548;51.420;-0.040;2023-05-10T08:37:34;10.82;;;2.40;;
45836;SDS011;31548;51.420;-0.040;2023-05-10T08:40:01;11.35;;;2.17;;
45836;SDS011;31548;51.420;-0.040;2023-05-10T08:42:30;9.43;;;1.95;;
45836;SDS011;31548;51.420;-0.040;2023-05-10T08:45:02;10.40;;;2.25;;
45836;SDS011;31548;51.420;-0.040;2023-05-10T08:47:31;9.48;;;2.33;;
45836;SDS011;31548;51.420;-0.040;2023-05-10T08:49:58;7.13;;;2.38;;
45836;SDS011;31548;51.420;-0.040;2023-05-10T08:52:26;12.00;;;2.22;;
45836;SDS011;31548;51.420;-0.040;2023-05-10T08:54:56;12.73;;;2.33;;
45836;SDS011;31548;51.420;-0.040;2023-05-10T08:57:23;10.77;;;2.38;;
45836;SDS011;31548;51.420;-0.040;2023-05-10T08:59:51;9.18;;;2.50;;
45836;SDS011;31548;51.420;-0.040;2023-05-10T09:02:19;8.80;;;2.17;;
45836;SDS011;31548;51.420;-0.040;2023-05-10T09:04:47;11.98;;;3.15;;
45836;SDS011;31548;51.420;-0.040;2023-05-10T09:07:15;14.85;;;3.40;;
45836;SDS011;31548;51.420;-0.040;2023-05-10T09:09:43;9.68;;;2.10;;
45836;SDS011;31548;51.420;-0.040;2023-05-10T09:12:12;12.35;;;2.53;;
45836;SDS011;31548;51.420;-0.040;2023-05-10T09:14:42;13.40;;;2.67;;
45836;SDS011;31548;51.420;-0.040;2023-05-10T09:17:11;10.90;;;2.97;;
45836;SDS011;31548;51.420;-0.040;2023-05-10T09:19:39;10.20;;;2.65;;
45836;SDS011;31548;51.420;-0.040;2023-05-10T09:22:06;7.53;;;2.58;;
45836;SDS011;31548;51.420;-0.040;2023-05-10T09:24:33;6.97;;;3.15;;
45836;SDS011;31548;51.420;-0.040;2023-05-10T09:27:01;18.40;;;4.15;;
45836;SDS011;31548;51.420;-0.040;2023-05-10T09:29:38;16.02;;;3.75;;
45836;SDS011;31548;51.420;-0.040;2023-05-10T09:32:07;17.45;;;4.47;;
45836;SDS011;31548;51.420;-0.040;2023-05-10T09:34:34;11.35;;;3.65;;
45836;SDS011;31548;51.420;-0.040;2023-05-10T09:37:02;7.55;;;3.60;;
45836;SDS011;31548;51.420;-0.040;2023-05-10T09:39:36;7.10;;;2.85;;
45836;SDS011;31548;51.420;-0.040;2023-05-10T09:42:05;12.85;;;3.25;;
45836;SDS011;31548;51.420;-0.040;2023-05-10T09:44:34;6.55;;;2.38;;
45836;SDS011;31548;51.420;-0.040;2023-05-10T09:47:02;8.80;;;2.05;;
45836;SDS011;31548;51.420;-0.040;2023-05-10T09:49:30;10.95;;;2.47;;
45836;SDS011;31548;51.420;-0.040;2023-05-10T09:51:59;8.05;;;3.03;;
45836;SDS011;31548;51.420;-0.040;2023-05-10T09:54:28;13.18;;;2.22;;
45836;SDS011;31548;51.420;-0.040;2023-05-10T09:56:56;8.13;;;3.00;;
45836;SDS011;31548;51.420;-0.040;2023-05-10T09:59:26;9.45;;;2.50;;
45836;SDS011;31548;51.420;-0.040;2023-05-10T10:01:58;11.15;;;2.60;;
45836;SDS011;31548;51.420;-0.040;2023-05-10T10:04:27;11.60;;;2.90;;
45836;SDS011;31548;51.420;-0.040;2023-05-10T10:06:58;10.20;;;3.17;;
45836;SDS011;31548;51.420;-0.040;2023-05-10T10:09:29;9.55;;;3.08;;
45836;SDS011;31548;51.420;-0.040;2023-05-10T10:11:58;8.23;;;2.97;;
45836;SDS011;31548;51.420;-0.040;2023-05-10T10:14:29;8.43;;;3.30;;
45836;SDS011;31548;51.420;-0.040;2023-05-10T10:16:56;9.68;;;3.15;;
45836;SDS011;31548;51.420;-0.040;2023-05-10T10:19:34;8.73;;;2.95;;
45836;SDS011;31548;51.420;-0.040;2023-05-10T10:22:02;8.85;;;2.95;;
45836;SDS011;31548;51.420;-0.040;2023-05-10T10:24:30;8.32;;;2.50;;
45836;SDS011;31548;51.420;-0.040;2023-05-10T10:27:00;8.48;;;2.67;;
45836;SDS011;31548;51.420;-0.040;2023-05-10T10:32:55;7.75;;;1.90;;
45836;SDS011;31548;51.420;-0.040;2023-05-10T10:35:42;8.82;;;2.13;;
45836;SDS011;31548;51.420;-0.040;2023-05-10T10:38:12;5.00;;;1.80;;
45836;SDS011;31548;51.420;-0.040;2023-05-10T10:40:40;10.95;;;2.30;;
45836;SDS011;31548;51.420;-0.040;2023-05-10T10:46:13;7.13;;;2.05;;
45836;SDS011;31548;51.420;-0.040;2023-05-10T10:49:08;7.38;;;2.50;;
45836;SDS011;31548;51.420;-0.040;2023-05-10T10:51:36;14.23;;;3.65;;
45836;SDS011;31548;51.420;-0.040;2023-05-10T10:54:30;8.95;;;2.35;;
45836;SDS011;31548;51.420;-0.040;2023-05-10T10:57:11;6.15;;;2.60;;
45836;SDS011;31548;51.420;-0.040;2023-05-10T10:59:43;15.43;;;1.83;;
45836;SDS011;31548;51.420;-0.040;2023-05-10T11:02:31;8.60;;;2.42;;
45836;SDS011;31548;51.420;-0.040;2023-05-10T11:07:56;9.82;;;2.55;;
45836;SDS011;31548;51.420;-0.040;2023-05-10T11:10:24;9.18;;;2.03;;
45836;SDS011;31548;51.420;-0.040;2023-05-10T11:15:36;4.95;;;1.85;;
45836;SDS011;31548;51.420;-0.040;2023-05-10T11:18:19;9.30;;;1.63;;
45836;SDS011;31548;51.420;-0.040;2023-05-10T11:20:58;7.75;;;1.77;;
45836;SDS011;31548;51.420;-0.040;2023-05-10T11:23:29;7.35;;;1.20;;
45836;SDS011;31548;51.420;-0.040;2023-05-10T11:25:59;5.80;;;1.40;;
45836;SDS011;31548;51.420;-0.040;2023-05-10T11:28:31;5.90;;;1.80;;
45836;SDS011;31548;51.420;-0.040;2023-05-10T11:30:59;4.53;;;1.17;;
45836;SDS011;31548;51.420;-0.040;2023-05-10T11:33:26;5.93;;;1.52;;
45836;SDS011;31548;51.420;-0.040;2023-05-10T11:35:53;7.07;;;1.60;;
45836;SDS011;31548;51.420;-0.040;2023-05-10T11:38:20;4.57;;;0.98;;
45836;SDS011;31548;51.420;-0.040;2023-05-10T11:40:49;4.75;;;0.95;;
45836;SDS011;31548;51.420;-0.040;2023-05-10T11:43:19;7.32;;;1.55;;
45836;SDS011;31548;51.420;-0.040;2023-05-10T11:45:50;7.30;;;1.30;;
45836;SDS011;31548;51.420;-0.040;2023-05-10T11:48:17;6.40;;;1.70;;
45836;SDS011;31548;51.420;-0.040;2023-05-10T11:50:49;4.07;;;0.63;;
45836;SDS011;31548;51.420;-0.040;2023-05-10T11:53:16;3.70;;;0.65;;
45836;SDS011;31548;51.420;-0.040;2023-05-10T11:55:47;2.95;;;0.70;;
45836;SDS011;31548;51.420;-0.040;2023-05-10T11:58:14;6.32;;;0.82;;
45836;SDS011;31548;51.420;-0.040;2023-05-10T12:00:42;5.22;;;0.77;;
45836;SDS011;31548;51.420;-0.040;2023-05-10T12:03:09;5.38;;;0.75;;
45836;SDS011;31548;51.420;-0.040;2023-05-10T12:05:37;5.28;;;1.00;;
45836;SDS011;31548;51.420;-0.040;2023-05-10T12:08:10;6.32;;;0.85;;
45836;SDS011;31548;51.420;-0.040;2023-05-10T12:10:39;4.38;;;0.80;;
45836;SDS011;31548;51.420;-0.040;2023-05-10T12:13:10;9.88;;;1.35;;
45836;SDS011;31548;51.420;-0.040;2023-05-10T12:15:39;4.78;;;1.10;;
45836;SDS011;31548;51.420;-0.040;2023-05-10T12:18:08;4.97;;;1.05;;
45836;SDS011;31548;51.420;-0.040;2023-05-10T12:20:37;12.65;;;1.30;;
45836;SDS011;31548;51.420;-0.040;2023-05-10T12:23:05;8.15;;;0.80;;
45836;SDS011;31548;51.420;-0.040;2023-05-10T12:25:35;8.90;;;1.02;;
45836;SDS011;31548;51.420;-0.040;2023-05-10T12:28:05;5.97;;;0.88;;
45836;SDS011;31548;51.420;-0.040;2023-05-10T12:30:34;3.75;;;0.80;;
45836;SDS011;31548;51.420;-0.040;2023-05-10T12:33:12;3.40;;;0.80;;
45836;SDS011;31548;51.420;-0.040;2023-05-10T12:35:51;6.60;;;0.73;;
45836;SDS011;31548;51.420;-0.040;2023-05-10T12:41:04;3.78;;;0.70;;
45836;SDS011;31548;51.420;-0.040;2023-05-10T12:43:33;10.07;;;1.40;;
45836;SDS011;31548;51.420;-0.040;2023-05-10T12:46:08;4.03;;;0.80;;
45836;SDS011;31548;51.420;-0.040;2023-05-10T12:48:37;6.68;;;0.88;;
45836;SDS011;31548;51.420;-0.040;2023-05-10T12:51:05;4.25;;;0.80;;
45836;SDS011;31548;51.420;-0.040;2023-05-10T12:53:35;4.53;;;0.75;;
45836;SDS011;31548;51.420;-0.040;2023-05-10T12:56:03;5.38;;;0.80;;
45836;SDS011;31548;51.420;-0.040;2023-05-10T12:58:30;6.32;;;1.10;;
45836;SDS011;31548;51.420;-0.040;2023-05-10T13:01:01;4.28;;;0.98;;
45836;SDS011;31548;51.420;-0.040;2023-05-10T13:03:29;4.63;;;0.85;;
45836;SDS011;31548;51.420;-0.040;2023-05-10T13:05:57;6.60;;;1.45;;
45836;SDS011;31548;51.420;-0.040;2023-05-10T13:08:24;6.05;;;0.95;;
45836;SDS011;31548;51.420;-0.040;2023-05-10T13:10:51;9.43;;;1.40;;
45836;SDS011;31548;51.420;-0.040;2023-05-10T13:13:19;8.93;;;1.20;;
45836;SDS011;31548;51.420;-0.040;2023-05-10T13:15:46;5.05;;;1.05;;
45836;SDS011;31548;51.420;-0.040;2023-05-10T13:18:13;9.52;;;1.17;;
45836;SDS011;31548;51.420;-0.040;2023-05-10T13:20:41;7.05;;;1.13;;
45836;SDS011;31548;51.420;-0.040;2023-05-10T13:23:09;7.93;;;0.90;;
45836;SDS011;31548;51.420;-0.040;2023-05-10T13:25:37;7.47;;;1.20;;
45836;SDS011;31548;51.420;-0.040;2023-05-10T13:28:04;9.25;;;1.30;;
45836;SDS011;31548;51.420;-0.040;2023-05-10T13:30:31;3.88;;;0.80;;
45836;SDS011;31548;51.420;-0.040;2023-05-10T13:32:59;3.60;;;1.02;;
45836;SDS011;31548;51.420;-0.040;2023-05-10T13:35:26;4.25;;;0.85;;
45836;SDS011;31548;51.420;-0.040;2023-05-10T13:37:53;5.22;;;0.80;;
45836;SDS011;31548;51.420;-0.040;2023-05-10T13:40:23;4.47;;;1.10;;
45836;SDS011;31548;51.420;-0.040;2023-05-10T13:42:50;6.65;;;1.10;;
45836;SDS011;31548;51.420;-0.040;2023-05-10T13:45:17;3.75;;;0.90;;
45836;SDS011;31548;51.420;-0.040;2023-05-10T13:47:45;3.83;;;0.77;;
45836;SDS011;31548;51.420;-0.040;2023-05-10T13:50:12;6.20;;;1.20;;
45836;SDS011;31548;51.420;-0.040;2023-05-10T13:52:39;6.10;;;1.10;;
45836;SDS011;31548;51.420;-0.040;2023-05-10T13:55:06;4.22;;;1.52;;
45836;SDS011;31548;51.420;-0.040;2023-05-10T13:57:34;3.95;;;1.00;;
45836;SDS011;31548;51.420;-0.040;2023-05-10T14:00:02;9.52;;;1.42;;
45836;SDS011;31548;51.420;-0.040;2023-05-10T14:02:33;4.50;;;0.75;;
45836;SDS011;31548;51.420;-0.040;2023-05-10T14:05:01;3.25;;;0.60;;
45836;SDS011;31548;51.420;-0.040;2023-05-10T14:07:28;5.32;;;1.08;;
45836;SDS011;31548;51.420;-0.040;2023-05-10T14:09:55;5.60;;;0.65;;
45836;SDS011;31548;51.420;-0.040;2023-05-10T14:12:22;3.75;;;0.90;;
45836;SDS011;31548;51.420;-0.040;2023-05-10T14:14:50;6.55;;;1.50;;
45836;SDS011;31548;51.420;-0.040;2023-05-10T14:17:17;3.95;;;0.70;;
45836;SDS011;31548;51.420;-0.040;2023-05-10T14:19:44;3.15;;;0.70;;
45836;SDS011;31548;51.420;-0.040;2023-05-10T14:22:11;3.22;;;0.63;;
45836;SDS011;31548;51.420;-0.040;2023-05-10T14:24:38;3.47;;;0.60;;
45836;SDS011;31548;51.420;-0.040;2023-05-10T14:27:05;5.28;;;0.75;;
45836;SDS011;31548;51.420;-0.040;2023-05-10T14:29:33;4.97;;;0.70;;
45836;SDS011;31548;51.420;-0.040;2023-05-10T14:32:00;3.00;;;0.60;;
45836;SDS011;31548;51.420;-0.040;2023-05-10T14:34:29;5.53;;;0.70;;
45836;SDS011;31548;51.420;-0.040;2023-05-10T14:36:56;2.15;;;0.50;;
45836;SDS011;31548;51.420;-0.040;2023-05-10T14:39:23;4.95;;;0.68;;
45836;SDS011;31548;51.420;-0.040;2023-05-10T14:41:51;4.05;;;0.60;;
45836;SDS011;31548;51.420;-0.040;2023-05-10T14:44:19;2.08;;;0.80;;
45836;SDS011;31548;51.420;-0.040;2023-05-10T14:46:46;1.83;;;0.50;;
45836;SDS011;31548;51.420;-0.040;2023-05-10T14:49:14;2.28;;;0.70;;
45836;SDS011;31548;51.420;-0.040;2023-05-10T14:51:42;5.00;;;0.77;;
45836;SDS011;31548;51.420;-0.040;2023-05-10T14:54:09;3.88;;;0.60;;
45836;SDS011;31548;51.420;-0.040;2023-05-10T14:56:36;2.75;;;0.50;;
45836;SDS011;31548;51.420;-0.040;2023-05-10T14:59:04;2.63;;;0.88;;
45836;SDS011;31548;51.420;-0.040;2023-05-10T15:01:32;10.50;;;1.33;;
45836;SDS011;31548;51.420;-0.040;2023-05-10T15:04:00;5.00;;;0.90;;
45836;SDS011;31548;51.420;-0.040;2023-05-10T15:06:31;3.70;;;0.57;;
45836;SDS011;31548;51.420;-0.040;2023-05-10T15:09:00;3.60;;;0.73;;
45836;SDS011;31548;51.420;-0.040;2023-05-10T15:11:28;4.57;;;0.70;;
45836;SDS011;31548;51.420;-0.040;2023-05-10T15:13:55;10.05;;;0.82;;
45836;SDS011;31548;51.420;-0.040;2023-05-10T15:16:23;3.92;;;0.60;;
45836;SDS011;31548;51.420;-0.040;2023-05-10T15:18:50;1.92;;;0.50;;